Time;durP1;ratioP1;P1;durP2;ratioP2;P2;SDS_P1;SDS_P2;PMS_P1;PMS_P2;Temp;Humidity;BMP_temperature;BMP_pressure;BME280_temperature;BME280_humidity;BME280_pressure;Samples;Min_cycle;Max_cycle;Signal;HPM_P1;HPM_P2
2021/10/03 00:00:17;;;;;;;12.45;6.15;;;;;;;;;;5054517;28;20397;-52
2021/10/03 00:02:43;;;;;;;14.80;6.78;;;;;;;;;;5054010;28;20033;-52
2021/10/03 00:05:11;;;;;;;13.38;5.82;;;;;;;;;;5053804;28;20025;-52
2021/10/03 00:07:40;;;;;;;23.95;5.90;;;;;;;;;;5054296;28;20052;-52
2021/10/03 00:10:06;;;;;;;11.95;6.68;;;;;;;;;;5054173;28;20025;-52
2021/10/03 00:12:33;;;;;;;11.48;6.03;;;;;;;;;;5054261;28;20071;-53
2021/10/03 00:14:59;;;;;;;14.13;6.75;;;;;;;;;;5053600;28;20067;-52
2021/10/03 00:17:25;;;;;;;9.50;5.53;;;;;;;;;;5054254;28;20024;-52
2021/10/03 00:19:51;;;;;;;12.18;6.13;;;;;;;;;;5053812;28;20021;-52
2021/10/03 00:22:16;;;;;;;11.98;6.10;;;;;;;;;;5053730;28;20022;-52
2021/10/03 00:24:42;;;;;;;13.07;7.03;;;;;;;;;;5053333;28;20045;-52
2021/10/03 00:27:08;;;;;;;13.45;6.32;;;;;;;;;;5054164;28;20155;-52
2021/10/03 00:29:35;;;;;;;8.10;5.47;;;;;;;;;;5053806;28;20479;-52
2021/10/03 00:32:02;;;;;;;9.27;5.72;;;;;;;;;;5054065;28;20207;-52
2021/10/03 00:34:28;;;;;;;11.52;5.57;;;;;;;;;;5052975;28;20021;-52
2021/10/03 00:36:54;;;;;;;10.52;5.97;;;;;;;;;;5053427;28;20031;-52
2021/10/03 00:39:20;;;;;;;12.10;6.38;;;;;;;;;;5053559;28;20021;-52
2021/10/03 00:41:46;;;;;;;22.75;6.18;;;;;;;;;;5054205;28;20102;-53
2021/10/03 00:44:12;;;;;;;14.85;5.85;;;;;;;;;;5053175;28;20040;-52
2021/10/03 00:46:38;;;;;;;12.05;5.28;;;;;;;;;;5053896;28;20017;-52
2021/10/03 00:49:04;;;;;;;62.67;8.32;;;;;;;;;;5053319;28;20025;-52
2021/10/03 00:51:31;;;;;;;21.30;6.50;;;;;;;;;;5053436;28;20060;-52
2021/10/03 00:53:57;;;;;;;25.02;6.82;;;;;;;;;;5052593;28;20438;-52
2021/10/03 00:56:23;;;;;;;11.27;5.07;;;;;;;;;;5052667;28;20033;-52
2021/10/03 00:58:49;;;;;;;8.75;5.28;;;;;;;;;;5053207;28;20029;-52
2021/10/03 01:01:15;;;;;;;12.40;5.72;;;;;;;;;;5053564;28;20112;-52
2021/10/03 01:03:41;;;;;;;10.60;5.65;;;;;;;;;;5052235;28;20043;-52
2021/10/03 01:06:07;;;;;;;11.35;5.43;;;;;;;;;;5053226;28;20024;-52
2021/10/03 01:08:35;;;;;;;12.35;5.55;;;;;;;;;;5053258;28;20021;-52
2021/10/03 01:11:01;;;;;;;9.85;5.47;;;;;;;;;;5053156;28;20469;-53
2021/10/03 01:13:27;;;;;;;31.48;5.80;;;;;;;;;;5053116;28;20047;-52
2021/10/03 01:15:54;;;;;;;49.88;7.65;;;;;;;;;;5052888;28;20120;-52
2021/10/03 01:18:20;;;;;;;19.35;6.15;;;;;;;;;;5052558;28;20028;-52
2021/10/03 01:20:47;;;;;;;32.90;6.40;;;;;;;;;;5052880;28;20093;-53
2021/10/03 01:23:13;;;;;;;12.57;6.30;;;;;;;;;;5053318;28;20094;-52
2021/10/03 01:25:43;;;;;;;9.00;5.22;;;;;;;;;;5052610;28;20029;-52
2021/10/03 01:28:09;;;;;;;;;;;;;;;;;;5053225;28;20025;-52
2021/10/03 01:30:36;;;;;;;12.00;5.45;;;;;;;;;;5052959;28;20322;-52
2021/10/03 01:33:03;;;;;;;13.15;5.43;;;;;;;;;;5052786;28;20025;-52
2021/10/03 01:35:29;;;;;;;12.25;5.20;;;;;;;;;;5052082;28;20025;-52
2021/10/03 01:37:55;;;;;;;14.75;4.78;;;;;;;;;;5053218;28;20051;-52
2021/10/03 01:40:22;;;;;;;52.30;7.88;;;;;;;;;;5052892;28;20025;-52
2021/10/03 01:42:49;;;;;;;42.67;6.47;;;;;;;;;;5039592;28;20521;-52
2021/10/03 01:45:16;;;;;;;30.73;7.65;;;;;;;;;;5032131;28;20079;-52
2021/10/03 01:48:01;;;;;;;10.15;4.95;;;;;;;;;;5032161;28;20461;-53
2021/10/03 01:50:27;;;;;;;8.30;4.07;;;;;;;;;;5032890;28;20029;-52
2021/10/03 01:52:53;;;;;;;14.23;5.60;;;;;;;;;;5036863;28;20033;-53
2021/10/03 01:55:19;;;;;;;9.60;4.95;;;;;;;;;;5050746;28;20029;-52
2021/10/03 01:57:45;;;;;;;7.78;4.70;;;;;;;;;;5052848;28;20079;-53
2021/10/03 02:00:11;;;;;;;9.90;4.60;;;;;;;;;;5046274;28;20065;-53
2021/10/03 02:02:37;;;;;;;18.13;4.95;;;;;;;;;;5032786;28;20371;-53
2021/10/03 02:05:03;;;;;;;37.80;6.93;;;;;;;;;;5032299;28;20029;-52
2021/10/03 02:07:29;;;;;;;28.40;6.88;;;;;;;;;;5033321;28;20022;-52
2021/10/03 02:09:57;;;;;;;43.05;6.47;;;;;;;;;;5036230;28;20645;-52
2021/10/03 02:12:23;;;;;;;36.95;6.15;;;;;;;;;;5034997;28;20506;-52
2021/10/03 02:14:49;;;;;;;8.75;4.30;;;;;;;;;;5035442;28;20021;-52
2021/10/03 02:17:15;;;;;;;7.72;5.05;;;;;;;;;;5036392;28;20360;-53
2021/10/03 02:19:42;;;;;;;12.65;4.70;;;;;;;;;;5036602;28;20343;-51
2021/10/03 02:22:08;;;;;;;7.47;4.13;;;;;;;;;;5036452;28;20029;-52
2021/10/03 02:24:35;;;;;;;11.93;5.90;;;;;;;;;;5035750;28;20095;-52
2021/10/03 02:27:01;;;;;;;8.85;4.55;;;;;;;;;;5036357;28;20029;-52
2021/10/03 02:29:28;;;;;;;12.80;4.78;;;;;;;;;;5035660;28;20439;-52
2021/10/03 02:31:54;;;;;;;40.58;5.55;;;;;;;;;;5036183;28;20038;-52
2021/10/03 02:34:21;;;;;;;13.30;5.10;;;;;;;;;;5035597;28;20029;-52
2021/10/03 02:36:47;;;;;;;18.67;6.13;;;;;;;;;;5035869;28;20030;-52
2021/10/03 02:39:13;;;;;;;8.50;4.47;;;;;;;;;;5036139;28;20029;-52
2021/10/03 02:41:39;;;;;;;9.38;4.75;;;;;;;;;;5035802;28;20029;-52
2021/10/03 02:44:06;;;;;;;16.60;6.05;;;;;;;;;;5035389;28;20075;-52
2021/10/03 02:46:40;;;;;;;28.92;7.13;;;;;;;;;;5036236;28;20075;-52
2021/10/03 02:49:06;;;;;;;10.70;5.03;;;;;;;;;;5031244;28;20022;-52
2021/10/03 02:51:32;;;;;;;11.43;5.53;;;;;;;;;;5035879;28;20041;-53
2021/10/03 02:53:58;;;;;;;10.02;4.32;;;;;;;;;;5035301;28;20018;-52
2021/10/03 02:56:25;;;;;;;8.80;4.28;;;;;;;;;;5035932;28;20459;-52
2021/10/03 02:58:52;;;;;;;8.68;4.75;;;;;;;;;;5035327;28;20025;-52
2021/10/03 03:01:18;;;;;;;15.43;5.88;;;;;;;;;;5035813;28;20030;-53
2021/10/03 03:03:44;;;;;;;16.10;5.55;;;;;;;;;;5034464;28;20096;-52
2021/10/03 03:06:10;;;;;;;9.43;4.43;;;;;;;;;;5035732;28;20558;-52
2021/10/03 03:08:37;;;;;;;17.88;4.88;;;;;;;;;;5035273;28;20033;-52
2021/10/03 03:11:04;;;;;;;10.68;3.88;;;;;;;;;;5035404;28;20112;-52
2021/10/03 03:13:30;;;;;;;13.05;5.28;;;;;;;;;;5034900;28;20041;-52
2021/10/03 03:15:56;;;;;;;7.63;4.15;;;;;;;;;;5035103;28;20116;-52
2021/10/03 03:18:22;;;;;;;10.40;4.38;;;;;;;;;;5035308;28;20034;-52
2021/10/03 03:20:48;;;;;;;15.07;4.75;;;;;;;;;;5034714;28;20133;-52
2021/10/03 03:23:14;;;;;;;25.23;5.40;;;;;;;;;;5035294;28;20021;-52
2021/10/03 03:25:40;;;;;;;22.48;5.18;;;;;;;;;;5034360;28;20411;-52
2021/10/03 03:28:07;;;;;;;17.60;4.38;;;;;;;;;;5034984;28;20087;-52
2021/10/03 03:30:33;;;;;;;12.25;5.45;;;;;;;;;;5034975;28;20033;-52
2021/10/03 03:32:59;;;;;;;23.52;5.03;;;;;;;;;;5034941;28;20057;-52
2021/10/03 03:35:25;;;;;;;10.95;5.05;;;;;;;;;;5034831;28;20068;-52
2021/10/03 03:37:52;;;;;;;17.42;5.22;;;;;;;;;;5034530;28;20637;-52
2021/10/03 03:40:19;;;;;;;12.15;4.60;;;;;;;;;;5035170;28;20029;-52
2021/10/03 03:42:45;;;;;;;23.80;5.40;;;;;;;;;;5034767;28;20037;-52
2021/10/03 03:45:11;;;;;;;12.88;5.43;;;;;;;;;;5033910;28;20354;-52
2021/10/03 03:47:38;;;;;;;25.35;5.70;;;;;;;;;;5034785;28;20418;-52
2021/10/03 03:50:04;;;;;;;15.45;5.05;;;;;;;;;;5034415;28;20025;-52
2021/10/03 03:52:30;;;;;;;11.02;5.40;;;;;;;;;;5035137;28;20032;-52
2021/10/03 03:54:56;;;;;;;30.30;6.45;;;;;;;;;;5033697;28;20029;-52
2021/10/03 03:57:22;;;;;;;18.55;5.38;;;;;;;;;;5034779;28;20063;-52
2021/10/03 03:59:48;;;;;;;19.70;5.35;;;;;;;;;;5034272;28;20033;-52
2021/10/03 04:02:15;;;;;;;9.88;4.30;;;;;;;;;;5034715;28;20026;-53
2021/10/03 04:04:41;;;;;;;24.55;5.20;;;;;;;;;;5033682;28;20460;-53
2021/10/03 04:07:07;;;;;;;14.13;5.47;;;;;;;;;;5034796;28;20144;-52
2021/10/03 04:09:34;;;;;;;7.65;4.40;;;;;;;;;;5034419;28;20017;-52
2021/10/03 04:12:00;;;;;;;10.63;5.50;;;;;;;;;;5034408;28;20040;-52
2021/10/03 04:14:26;;;;;;;22.50;4.80;;;;;;;;;;5033094;28;20022;-52
2021/10/03 04:16:52;;;;;;;20.73;5.60;;;;;;;;;;5034146;28;20028;-52
2021/10/03 04:19:19;;;;;;;16.20;5.97;;;;;;;;;;5034421;28;20029;-52
2021/10/03 04:21:45;;;;;;;17.25;6.03;;;;;;;;;;5034050;28;20112;-52
2021/10/03 04:24:11;;;;;;;12.10;5.35;;;;;;;;;;5033280;28;20134;-52
2021/10/03 04:26:37;;;;;;;8.43;4.60;;;;;;;;;;5034328;28;20113;-53
2021/10/03 04:29:03;;;;;;;12.98;5.22;;;;;;;;;;5033809;28;20183;-52
2021/10/03 04:31:29;;;;;;;21.60;5.60;;;;;;;;;;5033927;28;20463;-52
2021/10/03 04:33:58;;;;;;;13.77;5.13;;;;;;;;;;5032972;28;20582;-52
2021/10/03 04:36:24;;;;;;;24.15;6.15;;;;;;;;;;5034119;28;20033;-52
2021/10/03 04:38:51;;;;;;;15.23;5.25;;;;;;;;;;5033686;28;20350;-52
2021/10/03 04:41:17;;;;;;;12.45;4.88;;;;;;;;;;5033565;28;20068;-52
2021/10/03 04:43:44;;;;;;;11.07;5.40;;;;;;;;;;5032700;28;20029;-53
2021/10/03 04:46:10;;;;;;;20.42;5.35;;;;;;;;;;5033816;28;20039;-52
2021/10/03 04:48:36;;;;;;;17.13;5.05;;;;;;;;;;5033869;28;20070;-53
2021/10/03 04:51:03;;;;;;;9.38;4.85;;;;;;;;;;5033579;28;20459;-52
2021/10/03 04:53:29;;;;;;;9.48;4.95;;;;;;;;;;5032938;28;20598;-53
2021/10/03 04:55:55;;;;;;;8.80;4.30;;;;;;;;;;5033521;28;20057;-52
2021/10/03 04:58:21;;;;;;;12.90;5.10;;;;;;;;;;5033747;28;20033;-52
2021/10/03 05:00:47;;;;;;;7.88;4.30;;;;;;;;;;5033229;28;20071;-52
2021/10/03 05:03:13;;;;;;;9.63;4.63;;;;;;;;;;5033327;28;20450;-52
2021/10/03 05:05:39;;;;;;;12.98;5.20;;;;;;;;;;5032749;28;20044;-52
2021/10/03 05:08:05;;;;;;;8.85;4.30;;;;;;;;;;5033635;28;20100;-52
2021/10/03 05:10:31;;;;;;;9.35;4.35;;;;;;;;;;5033212;28;20037;-52
2021/10/03 05:12:57;;;;;;;17.85;4.63;;;;;;;;;;5033336;28;20028;-52
2021/10/03 05:15:23;;;;;;;14.77;4.80;;;;;;;;;;5032054;28;20033;-52
2021/10/03 05:17:49;;;;;;;10.98;6.03;;;;;;;;;;5033367;28;20025;-52
2021/10/03 05:20:15;;;;;;;16.67;5.40;;;;;;;;;;5033271;28;20402;-52
2021/10/03 05:22:41;;;;;;;32.55;7.32;;;;;;;;;;5032987;28;20028;-52
2021/10/03 05:25:08;;;;;;;18.05;6.45;;;;;;;;;;5037369;28;20041;-52
2021/10/03 05:27:34;;;;;;;46.00;7.63;;;;;;;;;;5043638;28;20124;-52
2021/10/03 05:30:00;;;;;;;39.05;6.93;;;;;;;;;;5041460;28;20410;-52
2021/10/03 05:32:26;;;;;;;11.18;5.82;;;;;;;;;;5042626;28;20037;-52
2021/10/03 05:34:52;;;;;;;12.35;5.38;;;;;;;;;;5042450;28;20105;-53
2021/10/03 05:37:18;;;;;;;20.35;5.30;;;;;;;;;;5041635;28;20274;-52
2021/10/03 05:39:44;;;;;;;17.88;5.57;;;;;;;;;;5042923;28;20401;-52
2021/10/03 05:42:10;;;;;;;10.75;4.95;;;;;;;;;;5047517;28;20136;-52
2021/10/03 05:44:36;;;;;;;19.92;5.07;;;;;;;;;;5052294;28;20116;-52
2021/10/03 05:47:02;;;;;;;14.02;5.05;;;;;;;;;;5053048;28;20025;-52
2021/10/03 05:49:28;;;;;;;22.95;5.47;;;;;;;;;;5052829;28;20435;-52
2021/10/03 05:51:54;;;;;;;10.63;4.97;;;;;;;;;;5052516;28;20043;-52
2021/10/03 05:54:20;;;;;;;17.77;5.20;;;;;;;;;;5051744;28;20025;-52
2021/10/03 05:56:46;;;;;;;25.65;4.55;;;;;;;;;;5052659;28;20067;-52
2021/10/03 05:59:12;;;;;;;11.88;3.95;;;;;;;;;;5052818;28;20040;-52
2021/10/03 06:01:39;;;;;;;7.00;4.35;;;;;;;;;;5052161;28;20384;-52
2021/10/03 06:04:05;;;;;;;9.55;4.57;;;;;;;;;;5052211;28;20025;-52
2021/10/03 06:06:31;;;;;;;9.00;4.25;;;;;;;;;;5052835;28;20060;-52
2021/10/03 06:08:57;;;;;;;12.90;4.93;;;;;;;;;;5052547;28;20025;-52
2021/10/03 06:11:23;;;;;;;17.25;4.53;;;;;;;;;;5052507;28;20037;-52
2021/10/03 06:13:49;;;;;;;8.32;4.20;;;;;;;;;;5051822;28;20035;-53
2021/10/03 06:16:15;;;;;;;11.35;4.72;;;;;;;;;;5052377;28;20104;-52
2021/10/03 06:18:41;;;;;;;9.20;4.50;;;;;;;;;;5052658;28;20044;-52
2021/10/03 06:21:13;;;;;;;7.38;4.75;;;;;;;;;;5052318;28;20485;-53
2021/10/03 06:23:40;;;;;;;10.07;5.50;;;;;;;;;;5051558;28;20079;-53
2021/10/03 06:26:06;;;;;;;11.88;4.57;;;;;;;;;;5052324;28;20117;-52
2021/10/03 06:28:32;;;;;;;7.65;4.13;;;;;;;;;;5052248;28;20044;-52
2021/10/03 06:30:58;;;;;;;10.57;5.25;;;;;;;;;;5052227;28;20029;-52
2021/10/03 06:33:24;;;;;;;7.13;4.03;;;;;;;;;;5052723;28;20457;-52
2021/10/03 06:35:50;;;;;;;7.07;4.30;;;;;;;;;;5051777;28;20025;-52
2021/10/03 06:38:16;;;;;;;6.32;3.72;;;;;;;;;;5051831;28;20025;-53
2021/10/03 06:40:42;;;;;;;7.28;3.92;;;;;;;;;;5052157;28;20032;-52
2021/10/03 06:43:08;;;;;;;7.85;4.03;;;;;;;;;;5052566;28;20052;-52
2021/10/03 06:45:34;;;;;;;11.07;4.30;;;;;;;;;;5050920;28;20484;-52
2021/10/03 06:48:00;;;;;;;7.65;3.78;;;;;;;;;;5052271;28;20029;-53
2021/10/03 06:50:26;;;;;;;8.07;4.45;;;;;;;;;;5052352;28;20397;-53
2021/10/03 06:52:52;;;;;;;9.82;4.63;;;;;;;;;;5041841;28;20025;-52
2021/10/03 06:55:18;;;;;;;14.27;5.22;;;;;;;;;;5043163;28;20013;-52
2021/10/03 06:57:44;;;;;;;18.77;6.32;;;;;;;;;;5044580;28;20027;-52
2021/10/03 07:00:10;;;;;;;12.55;5.72;;;;;;;;;;5046244;28;20439;-52
2021/10/03 07:02:38;;;;;;;8.00;5.10;;;;;;;;;;5045163;28;20022;-53
2021/10/03 07:05:05;;;;;;;11.05;4.18;;;;;;;;;;5043429;28;20096;-52
2021/10/03 07:07:31;;;;;;;8.07;4.72;;;;;;;;;;5046282;28;20033;-52
2021/10/03 07:09:58;;;;;;;7.35;4.68;;;;;;;;;;5050693;28;20029;-52
2021/10/03 07:12:24;;;;;;;13.40;5.35;;;;;;;;;;5055473;28;20052;-53
2021/10/03 07:14:50;;;;;;;18.13;6.15;;;;;;;;;;5054495;28;20403;-53
2021/10/03 07:17:16;;;;;;;15.32;5.65;;;;;;;;;;5055519;28;20124;-52
2021/10/03 07:19:42;;;;;;;9.18;5.20;;;;;;;;;;5055665;28;20108;-53
2021/10/03 07:22:08;;;;;;;10.30;5.38;;;;;;;;;;5054971;28;20473;-52
2021/10/03 07:24:34;;;;;;;51.20;6.15;;;;;;;;;;5054797;28;20020;-52
2021/10/03 07:27:00;;;;;;;13.55;5.03;;;;;;;;;;5055429;28;20052;-52
2021/10/03 07:29:26;;;;;;;10.52;5.32;;;;;;;;;;5054775;28;20343;-53
2021/10/03 07:31:52;;;;;;;10.63;5.70;;;;;;;;;;5054647;28;20118;-52
2021/10/03 07:34:18;;;;;;;15.75;5.82;;;;;;;;;;5054406;28;20021;-52
2021/10/03 07:36:44;;;;;;;11.63;6.13;;;;;;;;;;5055019;28;20062;-53
2021/10/03 07:39:11;;;;;;;12.45;6.07;;;;;;;;;;5055201;28;20025;-52
2021/10/03 07:41:36;;;;;;;29.17;6.53;;;;;;;;;;5054413;28;20048;-53
2021/10/03 07:44:03;;;;;;;7.50;4.53;;;;;;;;;;5054216;28;20029;-53
2021/10/03 07:46:29;;;;;;;10.45;5.53;;;;;;;;;;5054935;28;20021;-52
2021/10/03 07:48:55;;;;;;;10.32;5.10;;;;;;;;;;5054762;28;20362;-53
2021/10/03 07:51:21;;;;;;;9.43;4.82;;;;;;;;;;5054708;28;20039;-53
2021/10/03 07:53:47;;;;;;;11.25;4.82;;;;;;;;;;5038826;28;20034;-53
2021/10/03 07:56:13;;;;;;;18.23;8.75;;;;;;;;;;5044819;28;20447;-52
2021/10/03 07:58:39;;;;;;;9.82;4.93;;;;;;;;;;5054278;28;20431;-53
2021/10/03 08:01:05;;;;;;;8.98;4.47;;;;;;;;;;5051571;28;20064;-52
2021/10/03 08:03:31;;;;;;;10.05;4.90;;;;;;;;;;5034118;28;20088;-53
2021/10/03 08:05:57;;;;;;;15.85;6.80;;;;;;;;;;5034242;28;20021;-52
2021/10/03 08:08:23;;;;;;;13.10;5.68;;;;;;;;;;5034681;28;20539;-53
2021/10/03 08:10:49;;;;;;;8.85;4.38;;;;;;;;;;5033743;28;20037;-53
2021/10/03 08:13:15;;;;;;;15.93;6.68;;;;;;;;;;5034636;28;20061;-53
2021/10/03 08:15:42;;;;;;;10.25;7.07;;;;;;;;;;5034029;28;20342;-53
2021/10/03 08:18:09;;;;;;;9.27;5.20;;;;;;;;;;5034312;28;20024;-53
2021/10/03 08:20:35;;;;;;;11.13;6.78;;;;;;;;;;5034275;28;20443;-53
2021/10/03 08:23:02;;;;;;;8.95;5.15;;;;;;;;;;5032712;28;20459;-53
2021/10/03 08:25:28;;;;;;;16.70;6.65;;;;;;;;;;5033193;28;20037;-53
2021/10/03 08:27:54;;;;;;;12.43;5.97;;;;;;;;;;5034186;28;20026;-53
2021/10/03 08:30:21;;;;;;;10.82;5.22;;;;;;;;;;5034205;28;20029;-53
2021/10/03 08:32:47;;;;;;;12.43;6.45;;;;;;;;;;5033818;28;20033;-53
2021/10/03 08:35:13;;;;;;;11.23;4.90;;;;;;;;;;5033165;28;20366;-53
2021/10/03 08:37:39;;;;;;;15.10;7.13;;;;;;;;;;5033808;28;20022;-53
2021/10/03 08:40:06;;;;;;;10.80;6.03;;;;;;;;;;5033935;28;20029;-53
2021/10/03 08:42:33;;;;;;;10.90;5.95;;;;;;;;;;5033597;28;20461;-53
2021/10/03 08:44:59;;;;;;;10.10;4.72;;;;;;;;;;5038381;28;20021;-53
2021/10/03 08:47:25;;;;;;;9.25;4.78;;;;;;;;;;5043117;28;20025;-53
2021/10/03 08:49:55;;;;;;;8.48;4.85;;;;;;;;;;5042049;28;20017;-53
2021/10/03 08:52:25;;;;;;;11.35;6.10;;;;;;;;;;5042409;28;20041;-53
2021/10/03 08:54:52;;;;;;;10.43;6.30;;;;;;;;;;5041859;28;20115;-53
2021/10/03 08:57:18;;;;;;;14.10;6.13;;;;;;;;;;5043873;28;20021;-53
2021/10/03 09:00:05;;;;;;;10.48;4.90;;;;;;;;;;5041529;28;20394;-52
2021/10/03 09:02:51;;;;;;;6.15;3.78;;;;;;;;;;5044046;28;20044;-53
2021/10/03 09:05:17;;;;;;;7.65;4.38;;;;;;;;;;5041758;28;20021;-53
2021/10/03 09:07:57;;;;;;;6.57;3.60;;;;;;;;;;5043443;28;20052;-53
2021/10/03 09:10:23;;;;;;;9.90;3.88;;;;;;;;;;5043000;28;20037;-53
2021/10/03 09:12:49;;;;;;;11.25;5.13;;;;;;;;;;5041862;28;20029;-53
2021/10/03 09:15:16;;;;;;;7.55;4.13;;;;;;;;;;5040792;28;20014;-53
2021/10/03 09:17:48;;;;;;;6.63;4.07;;;;;;;;;;5042285;28;20032;-53
2021/10/03 09:20:15;;;;;;;7.25;3.95;;;;;;;;;;5043697;28;20017;-53
2021/10/03 09:22:55;;;;;;;11.70;5.93;;;;;;;;;;5042518;28;20341;-55
2021/10/03 09:25:40;;;;;;;11.10;3.83;;;;;;;;;;5041951;28;20029;-53
2021/10/03 09:28:10;;;;;;;7.47;4.07;;;;;;;;;;5051194;28;20497;-52
2021/10/03 09:30:44;;;;;;;9.32;5.35;;;;;;;;;;5052693;28;20345;-53
2021/10/03 09:33:10;;;;;;;9.93;4.10;;;;;;;;;;5053134;28;20021;-53
2021/10/03 09:35:36;;;;;;;8.90;4.22;;;;;;;;;;5052079;28;20040;-53
2021/10/03 09:38:08;;;;;;;16.65;3.90;;;;;;;;;;5053142;28;20025;-52
2021/10/03 09:40:34;;;;;;;8.75;3.67;;;;;;;;;;5052983;28;20035;-52
2021/10/03 09:43:04;;;;;;;5.63;3.20;;;;;;;;;;5052372;28;20024;-51
2021/10/03 09:45:31;;;;;;;5.67;3.53;;;;;;;;;;5051884;28;20431;-51
2021/10/03 09:48:04;;;;;;;5.85;3.10;;;;;;;;;;5052703;28;20536;-52
2021/10/03 09:50:30;;;;;;;6.40;3.90;;;;;;;;;;5052690;28;20436;-51
2021/10/03 09:52:57;;;;;;;10.98;3.72;;;;;;;;;;5052522;28;20033;-52
2021/10/03 09:55:25;;;;;;;7.82;3.33;;;;;;;;;;5052206;28;20352;-52
2021/10/03 09:57:53;;;;;;;5.38;2.97;;;;;;;;;;5052779;28;20039;-52
2021/10/03 10:00:19;;;;;;;7.60;3.55;;;;;;;;;;5053071;28;20025;-52
2021/10/03 10:02:45;;;;;;;5.47;3.70;;;;;;;;;;5052291;28;20362;-52
2021/10/03 10:05:11;;;;;;;8.57;4.40;;;;;;;;;;5051678;28;20104;-51
2021/10/03 10:07:38;;;;;;;5.82;3.30;;;;;;;;;;5052576;28;20108;-51
2021/10/03 10:10:05;;;;;;;3.40;3.00;;;;;;;;;;5052655;28;20021;-51
2021/10/03 10:12:34;;;;;;;7.40;4.30;;;;;;;;;;5052652;28;20032;-51
2021/10/03 10:15:01;;;;;;;5.57;3.22;;;;;;;;;;5051962;28;20017;-51
2021/10/03 10:17:32;;;;;;;6.20;3.33;;;;;;;;;;5052215;28;20025;-51
2021/10/03 10:19:58;;;;;;;8.50;3.75;;;;;;;;;;5052288;28;20053;-52
2021/10/03 10:22:25;;;;;;;7.30;3.80;;;;;;;;;;5052590;28;20025;-51
2021/10/03 10:24:54;;;;;;;7.90;4.07;;;;;;;;;;5051824;28;20100;-51
2021/10/03 10:27:29;;;;;;;8.20;3.97;;;;;;;;;;5051994;28;20029;-52
2021/10/03 10:30:04;;;;;;;10.75;3.53;;;;;;;;;;5055859;28;20032;-51
2021/10/03 10:32:31;;;;;;;9.95;4.25;;;;;;;;;;5055941;28;20143;-51
2021/10/03 10:35:09;;;;;;;11.20;4.25;;;;;;;;;;5055615;28;20040;-51
2021/10/03 10:37:51;;;;;;;7.55;2.97;;;;;;;;;;5056118;28;20123;-52
2021/10/03 10:40:23;;;;;;;6.32;3.60;;;;;;;;;;5056394;28;20021;-51
2021/10/03 10:42:52;;;;;;;5.15;3.08;;;;;;;;;;5055965;28;20315;-52
2021/10/03 10:45:44;;;;;;;7.07;3.67;;;;;;;;;;5055624;28;20025;-51
2021/10/03 10:48:10;;;;;;;8.52;3.67;;;;;;;;;;5054499;28;20033;-51
2021/10/03 10:50:37;;;;;;;7.78;3.83;;;;;;;;;;5055918;28;20033;-51
2021/10/03 10:53:16;;;;;;;4.72;2.78;;;;;;;;;;5055664;28;20482;-51
2021/10/03 10:55:43;;;;;;;8.07;3.50;;;;;;;;;;5055311;28;20104;-52
2021/10/03 10:58:10;;;;;;;4.47;2.83;;;;;;;;;;5056218;28;20031;-51
2021/10/03 11:00:54;;;;;;;4.03;2.83;;;;;;;;;;5055768;28;20029;-51
2021/10/03 11:03:20;;;;;;;6.95;3.08;;;;;;;;;;5055428;28;20151;-51
2021/10/03 11:05:47;;;;;;;5.60;3.65;;;;;;;;;;5054579;28;20025;-51
2021/10/03 11:08:17;;;;;;;4.03;2.75;;;;;;;;;;5055772;28;20029;-51
2021/10/03 11:10:59;;;;;;;7.18;2.78;;;;;;;;;;5055416;28;20116;-51
2021/10/03 11:13:44;;;;;;;4.50;2.75;;;;;;;;;;5055346;28;20060;-51
2021/10/03 11:16:22;;;;;;;6.68;2.95;;;;;;;;;;5055257;28;20075;-51
2021/10/03 11:18:52;;;;;;;5.70;2.78;;;;;;;;;;5054727;28;20078;-51
2021/10/03 11:21:23;;;;;;;5.45;3.28;;;;;;;;;;5055054;28;20120;-51
2021/10/03 11:23:49;;;;;;;4.70;2.72;;;;;;;;;;5054575;28;20064;-51
2021/10/03 11:26:15;;;;;;;5.72;2.97;;;;;;;;;;5055619;28;20063;-51
2021/10/03 11:28:55;;;;;;;9.00;2.90;;;;;;;;;;5054780;28;20033;-51
2021/10/03 11:31:38;;;;;;;16.42;4.13;;;;;;;;;;5055354;28;20069;-51
2021/10/03 11:34:05;;;;;;;6.97;2.80;;;;;;;;;;5053982;28;20036;-51
2021/10/03 11:36:31;;;;;;;3.35;2.70;;;;;;;;;;5054996;28;20057;-51
2021/10/03 11:38:59;;;;;;;6.97;3.13;;;;;;;;;;5054900;28;20450;-51
2021/10/03 11:41:26;;;;;;;4.30;2.90;;;;;;;;;;5053987;28;20124;-51
2021/10/03 11:43:52;;;;;;;26.40;6.82;;;;;;;;;;5054285;28;20017;-52
2021/10/03 11:46:18;;;;;;;16.65;6.88;;;;;;;;;;5054487;28;20462;-51
2021/10/03 11:48:44;;;;;;;26.73;7.47;;;;;;;;;;5054542;28;20037;-52
2021/10/03 11:51:10;;;;;;;8.95;3.10;;;;;;;;;;5054883;28;20110;-51
2021/10/03 11:53:47;;;;;;;13.88;4.55;;;;;;;;;;5053685;28;20371;-51
2021/10/03 11:56:19;;;;;;;14.63;4.00;;;;;;;;;;5054891;28;20033;-51
2021/10/03 11:58:46;;;;;;;5.95;3.17;;;;;;;;;;5054693;28;20036;-51
2021/10/03 12:01:12;;;;;;;12.98;3.45;;;;;;;;;;5054821;28;20033;-51
2021/10/03 12:03:52;;;;;;;6.53;3.28;;;;;;;;;;5053752;28;20040;-52
2021/10/03 12:06:18;;;;;;;3.53;2.80;;;;;;;;;;5054151;28;20022;-51
2021/10/03 12:08:46;;;;;;;4.78;3.17;;;;;;;;;;5054378;28;20336;-51
2021/10/03 12:11:12;;;;;;;3.88;2.35;;;;;;;;;;5054481;28;20041;-51
2021/10/03 12:13:38;;;;;;;6.55;3.25;;;;;;;;;;5053388;28;20455;-51
2021/10/03 12:16:07;;;;;;;12.65;2.75;;;;;;;;;;5054620;28;20032;-51
2021/10/03 12:18:33;;;;;;;13.05;2.83;;;;;;;;;;5054417;28;20060;-51
2021/10/03 12:20:58;;;;;;;6.03;2.88;;;;;;;;;;5054203;28;20048;-51
2021/10/03 12:23:43;;;;;;;3.10;2.10;;;;;;;;;;5054344;28;20078;-51
2021/10/03 12:26:13;;;;;;;7.53;2.90;;;;;;;;;;5054207;28;20401;-52
2021/10/03 12:28:58;;;;;;;10.63;2.95;;;;;;;;;;5054130;28;20120;-51
2021/10/03 12:31:42;;;;;;;7.53;3.03;;;;;;;;;;5053433;28;20033;-51
2021/10/03 12:34:29;;;;;;;9.02;2.80;;;;;;;;;;5053149;28;20029;-51
2021/10/03 12:36:55;;;;;;;8.82;2.83;;;;;;;;;;5053897;28;20040;-51
2021/10/03 12:39:22;;;;;;;11.35;2.95;;;;;;;;;;5053489;28;20532;-51
2021/10/03 12:41:48;;;;;;;4.47;2.53;;;;;;;;;;5054267;28;20144;-51
2021/10/03 12:44:15;;;;;;;4.20;2.65;;;;;;;;;;5053055;28;20033;-52
2021/10/03 12:46:41;;;;;;;8.68;2.58;;;;;;;;;;5053787;28;20025;-52
2021/10/03 12:49:07;;;;;;;4.22;2.70;;;;;;;;;;5053395;28;20439;-51
2021/10/03 12:51:33;;;;;;;3.20;2.42;;;;;;;;;;5053541;28;20033;-51
2021/10/03 12:53:59;;;;;;;8.65;2.67;;;;;;;;;;5052461;28;20020;-51
2021/10/03 12:56:25;;;;;;;5.05;2.70;;;;;;;;;;5053405;28;20028;-52
2021/10/03 12:58:51;;;;;;;13.75;2.58;;;;;;;;;;5053786;28;20070;-51
2021/10/03 13:01:17;;;;;;;2.95;2.20;;;;;;;;;;5053571;28;20036;-52
2021/10/03 13:03:43;;;;;;;3.15;2.33;;;;;;;;;;5052390;28;20029;-52
2021/10/03 13:06:10;;;;;;;4.30;2.25;;;;;;;;;;5053239;28;20032;-51
2021/10/03 13:08:36;;;;;;;5.93;2.15;;;;;;;;;;5052957;28;20049;-52
2021/10/03 13:11:03;;;;;;;3.35;2.60;;;;;;;;;;5052985;28;20447;-52
2021/10/03 13:13:29;;;;;;;5.63;2.17;;;;;;;;;;5052898;28;20086;-52
2021/10/03 13:15:56;;;;;;;4.25;2.47;;;;;;;;;;5052934;28;20021;-51
2021/10/03 13:18:22;;;;;;;6.03;2.70;;;;;;;;;;5053303;28;20333;-52
2021/10/03 13:20:48;;;;;;;2.97;2.03;;;;;;;;;;5052763;28;20086;-51
2021/10/03 13:23:14;;;;;;;4.80;2.97;;;;;;;;;;5052829;28;20029;-52
2021/10/03 13:25:40;;;;;;;5.30;2.65;;;;;;;;;;5052464;28;20104;-52
2021/10/03 13:28:06;;;;;;;3.35;2.22;;;;;;;;;;5052762;28;20475;-52
2021/10/03 13:30:33;;;;;;;7.50;3.15;;;;;;;;;;5052964;28;20136;-51
2021/10/03 13:33:00;;;;;;;4.03;2.53;;;;;;;;;;5052968;28;20068;-52
2021/10/03 13:35:26;;;;;;;12.85;3.03;;;;;;;;;;5051868;28;20043;-51
2021/10/03 13:37:52;;;;;;;7.85;2.90;;;;;;;;;;5053138;28;20087;-52
2021/10/03 13:40:18;;;;;;;7.88;3.75;;;;;;;;;;5052609;28;20431;-52
2021/10/03 13:42:44;;;;;;;9.60;3.00;;;;;;;;;;5052878;28;20021;-52
2021/10/03 13:45:10;;;;;;;5.03;3.03;;;;;;;;;;5052233;28;20032;-51
2021/10/03 13:47:36;;;;;;;6.57;2.78;;;;;;;;;;5053131;28;20055;-52
2021/10/03 13:50:03;;;;;;;7.32;3.60;;;;;;;;;;5052741;28;20390;-51
2021/10/03 13:52:29;;;;;;;7.13;4.20;;;;;;;;;;5052953;28;20064;-52
2021/10/03 13:54:55;;;;;;;4.75;3.20;;;;;;;;;;5051560;28;20410;-52
2021/10/03 13:57:21;;;;;;;5.47;2.90;;;;;;;;;;5052720;28;20029;-52
2021/10/03 13:59:47;;;;;;;4.63;2.97;;;;;;;;;;5052841;28;20028;-52
2021/10/03 14:02:16;;;;;;;5.70;3.10;;;;;;;;;;5052459;28;20182;-52
2021/10/03 14:04:42;;;;;;;8.63;3.33;;;;;;;;;;5055028;28;20032;-52
2021/10/03 14:07:08;;;;;;;5.18;2.85;;;;;;;;;;5056170;28;20025;-52
2021/10/03 14:09:34;;;;;;;7.63;2.97;;;;;;;;;;5057135;28;20450;-52
2021/10/03 14:12:01;;;;;;;6.13;3.50;;;;;;;;;;5056577;28;20124;-51
2021/10/03 14:14:27;;;;;;;25.75;4.10;;;;;;;;;;5055619;28;20446;-51
2021/10/03 14:16:53;;;;;;;16.05;4.57;;;;;;;;;;5056327;28;20443;-52
2021/10/03 14:19:19;;;;;;;10.15;3.95;;;;;;;;;;5056825;28;20040;-51
2021/10/03 14:21:45;;;;;;;7.50;3.42;;;;;;;;;;5053730;28;20028;-52
2021/10/03 14:24:11;;;;;;;6.70;3.08;;;;;;;;;;5055908;28;20028;-52
2021/10/03 14:26:37;;;;;;;8.60;3.42;;;;;;;;;;5056657;28;20029;-52
2021/10/03 14:29:03;;;;;;;5.07;3.03;;;;;;;;;;5056324;28;20025;-52
2021/10/03 14:31:29;;;;;;;9.35;3.20;;;;;;;;;;5055897;28;20040;-51
2021/10/03 14:33:56;;;;;;;6.15;2.97;;;;;;;;;;5055428;28;20029;-52
2021/10/03 14:36:23;;;;;;;5.18;3.00;;;;;;;;;;5055593;28;20108;-51